Jefferson Park, New York
Current Conditions -  °F | °C
As of 7:09 PM on Thursday 27 Nov 2014 (Local Time) from KART Reporting Station
Light Snow Light Snow  
Wind Chill: 29°   Ceiling: 3000
Heat Index: 29°   Visibility: 3mi
Dew Point: 23°   Wind: 0mph
Humidity: 78%   Direction: NA
Pressure: 30.05"   Gusts: NA
Location:  43.8534°N, 76.251°W
Report Text: KART 280009Z AUTO 00000KT 3SM -SN FEW016 OVC030 M02/M05 A3005 RMK AO2 P0000 T10171050
Loading
Personal Weather Stations






























Interactive Weather Map New forecast layout! Learn more

10-Day Weather Forecast

Advertisements
Track Severe Weather on mobile